createdAt,value
2023-03-22T00:01:38.233Z,14.40
2023-03-22T00:04:06.770Z,14.40
2023-03-22T00:06:35.218Z,14.40
2023-03-22T00:09:03.365Z,14.40
2023-03-22T00:11:31.806Z,14.20
2023-03-22T00:14:00.163Z,14.30
2023-03-22T00:16:29.807Z,14.30
2023-03-22T00:19:02.441Z,14.20
2023-03-22T00:21:31.452Z,14.20
2023-03-22T00:23:59.918Z,14.20
2023-03-22T00:26:28.420Z,14.10
2023-03-22T00:28:56.606Z,14.10
2023-03-22T00:31:25.190Z,14.10
2023-03-22T00:33:53.593Z,14.10
2023-03-22T00:36:23.618Z,14.10
2023-03-22T00:38:51.948Z,14.00
2023-03-22T00:41:21.741Z,14.10
2023-03-22T00:43:51.296Z,14.10
2023-03-22T00:46:22.136Z,14.00
2023-03-22T00:48:50.521Z,14.00
2023-03-22T00:51:19.192Z,13.90
2023-03-22T00:53:51.077Z,13.90
2023-03-22T00:56:19.725Z,13.80
2023-03-22T00:58:48.167Z,13.80
2023-03-22T01:01:16.691Z,13.80
2023-03-22T01:03:45.497Z,13.70
2023-03-22T01:06:13.957Z,13.80
2023-03-22T01:08:45.310Z,13.70
2023-03-22T01:11:15.123Z,13.60
2023-03-22T01:13:43.578Z,13.60
2023-03-22T01:16:13.450Z,13.50
2023-03-22T01:18:41.887Z,13.50
2023-03-22T01:21:10.632Z,13.50
2023-03-22T01:23:39.093Z,13.40
2023-03-22T01:26:08.116Z,13.40
2023-03-22T01:28:40.543Z,13.40
2023-03-22T01:31:09.454Z,13.40
2023-03-22T01:33:37.814Z,13.30
2023-03-22T01:36:07.123Z,13.30
2023-03-22T01:38:35.400Z,13.30
2023-03-22T01:41:04.023Z,13.30
2023-03-22T01:43:32.469Z,13.20
2023-03-22T01:46:02.443Z,13.20
2023-03-22T01:48:34.471Z,13.20
2023-03-22T01:51:09.076Z,13.10
2023-03-22T01:53:42.556Z,13.20
2023-03-22T01:56:11.992Z,13.20
2023-03-22T01:58:41.703Z,13.10
2023-03-22T02:01:12.704Z,13.10
2023-03-22T02:03:48.050Z,13.10
2023-03-22T02:06:16.541Z,13.10
2023-03-22T02:08:45.228Z,13.10
2023-03-22T02:11:17.994Z,13.10
2023-03-22T02:14:09.087Z,13.00
2023-03-22T02:16:49.693Z,13.00
2023-03-22T02:19:42.548Z,13.00
2023-03-22T02:22:38.925Z,13.00
2023-03-22T02:25:32.084Z,13.00
2023-03-22T02:28:14.690Z,12.90
2023-03-22T02:31:15.591Z,12.90
2023-03-22T02:34:00.609Z,12.90
2023-03-22T02:36:54.979Z,12.90
2023-03-22T02:39:41.259Z,12.90
2023-03-22T02:42:24.526Z,12.80
2023-03-22T02:45:01.031Z,12.80
2023-03-22T02:47:38.656Z,12.80
2023-03-22T02:50:15.770Z,12.80
2023-03-22T02:52:50.235Z,12.80
2023-03-22T02:55:25.033Z,12.80
2023-03-22T02:57:57.726Z,12.80
2023-03-22T03:00:27.956Z,12.70
2023-03-22T03:03:00.351Z,12.70
2023-03-22T03:05:32.731Z,12.70
2023-03-22T03:08:03.151Z,12.70
2023-03-22T03:10:33.304Z,12.60
2023-03-22T03:13:02.346Z,12.60
2023-03-22T03:15:31.330Z,12.70
2023-03-22T03:18:13.740Z,12.70
2023-03-22T03:20:54.420Z,12.60
2023-03-22T03:23:31.396Z,12.60
2023-03-22T03:26:09.181Z,12.60
2023-03-22T03:28:43.328Z,12.60
2023-03-22T03:31:21.670Z,12.60
2023-03-22T03:33:55.639Z,12.60
2023-03-22T03:36:26.230Z,12.60
2023-03-22T03:38:57.747Z,12.60
2023-03-22T03:41:30.053Z,12.60
2023-03-22T03:43:59.833Z,12.60
2023-03-22T03:46:29.239Z,12.60
2023-03-22T03:48:59.031Z,12.50
2023-03-22T03:51:28.541Z,12.50
2023-03-22T03:53:56.721Z,12.50
2023-03-22T03:56:25.271Z,12.50
2023-03-22T03:58:54.780Z,12.50
2023-03-22T04:01:24.338Z,12.50
2023-03-22T04:03:55.462Z,12.50
2023-03-22T04:06:23.939Z,12.50
2023-03-22T04:08:53.634Z,12.50
2023-03-22T04:11:22.208Z,12.50
2023-03-22T04:13:50.558Z,12.50
2023-03-22T04:16:20.470Z,12.40
2023-03-22T04:18:48.618Z,12.20
2023-03-22T04:21:16.960Z,12.30
2023-03-22T04:23:46.715Z,12.40
2023-03-22T04:26:15.477Z,12.30
2023-03-22T04:28:43.842Z,12.40
2023-03-22T04:31:12.477Z,12.40
2023-03-22T04:33:46.772Z,12.40
2023-03-22T04:36:17.555Z,12.50
2023-03-22T04:38:46.021Z,12.50
2023-03-22T04:41:14.198Z,12.50
2023-03-22T04:43:42.650Z,12.50
2023-03-22T04:46:12.967Z,12.50
2023-03-22T04:48:43.719Z,12.60
2023-03-22T04:51:12.908Z,12.50
2023-03-22T04:53:41.178Z,12.60
2023-03-22T04:56:12.821Z,12.50
2023-03-22T04:58:42.487Z,12.50
2023-03-22T05:01:12.594Z,12.50
2023-03-22T05:03:43.231Z,12.40
2023-03-22T05:06:11.618Z,12.50
2023-03-22T05:08:40.080Z,12.50
2023-03-22T05:11:10.817Z,12.50
2023-03-22T05:13:39.143Z,12.50
2023-03-22T05:16:10.422Z,12.40
2023-03-22T05:18:42.429Z,12.50
2023-03-22T05:21:16.087Z,12.50
2023-03-22T05:23:45.684Z,12.50
2023-03-22T05:26:15.667Z,12.50
2023-03-22T05:28:44.709Z,12.50
2023-03-22T05:31:15.144Z,12.40
2023-03-22T05:33:44.036Z,12.40
2023-03-22T05:36:13.983Z,12.40
2023-03-22T05:38:42.287Z,12.40
2023-03-22T05:41:10.700Z,12.50
2023-03-22T05:43:39.649Z,12.40
2023-03-22T05:46:08.656Z,12.50
2023-03-22T05:48:37.534Z,12.50
2023-03-22T05:51:07.408Z,12.50
2023-03-22T05:53:37.912Z,12.50
2023-03-22T05:56:10.109Z,12.50
2023-03-22T05:58:38.325Z,12.60
2023-03-22T06:01:08.045Z,12.60
2023-03-22T06:03:36.327Z,12.60
2023-03-22T06:06:06.890Z,12.60
2023-03-22T06:08:36.870Z,12.60
2023-03-22T06:11:06.976Z,12.60
2023-03-22T06:13:35.462Z,12.50
2023-03-22T06:16:05.546Z,12.70
2023-03-22T06:18:34.252Z,12.60
2023-03-22T06:21:02.670Z,12.70
2023-03-22T06:23:31.107Z,12.60
2023-03-22T06:26:00.657Z,12.70
2023-03-22T06:28:29.962Z,12.70
2023-03-22T06:30:58.286Z,12.70
2023-03-22T06:33:27.147Z,12.70
2023-03-22T06:35:55.455Z,12.80
2023-03-22T06:38:23.956Z,12.90
2023-03-22T06:40:52.121Z,13.00
2023-03-22T06:43:22.001Z,13.00
2023-03-22T06:45:50.450Z,13.20
2023-03-22T06:48:19.062Z,13.20
2023-03-22T06:50:47.393Z,13.20
2023-03-22T06:53:15.971Z,13.30
2023-03-22T06:55:44.180Z,13.50
2023-03-22T06:58:12.549Z,13.60
2023-03-22T07:00:42.354Z,13.70
2023-03-22T07:03:11.890Z,13.80
2023-03-22T07:05:40.367Z,13.90
2023-03-22T07:08:08.945Z,14.00
2023-03-22T07:10:37.502Z,14.10
2023-03-22T07:13:05.772Z,14.30
2023-03-22T07:15:35.026Z,14.40
2023-03-22T07:18:04.973Z,14.40
2023-03-22T07:20:36.784Z,14.60
2023-03-22T07:23:05.484Z,14.70
2023-03-22T07:25:33.704Z,14.80
2023-03-22T07:28:02.893Z,15.00
2023-03-22T07:30:31.710Z,15.10
2023-03-22T07:33:00.057Z,15.20
2023-03-22T07:35:31.008Z,15.20
2023-03-22T07:37:59.542Z,15.30
2023-03-22T07:40:28.725Z,15.40
2023-03-22T07:42:58.804Z,15.30
2023-03-22T07:45:27.813Z,15.30
2023-03-22T07:47:56.245Z,15.40
2023-03-22T07:50:25.006Z,15.40
2023-03-22T07:52:54.708Z,15.50
2023-03-22T07:55:24.238Z,15.50
2023-03-22T07:57:53.741Z,15.50
2023-03-22T08:00:22.573Z,15.60
2023-03-22T08:02:50.804Z,15.60
2023-03-22T08:05:19.418Z,15.50
2023-03-22T08:07:48.208Z,15.60
2023-03-22T08:10:18.077Z,15.60
2023-03-22T08:12:46.577Z,15.60
2023-03-22T08:15:15.089Z,15.70
2023-03-22T08:17:43.395Z,15.70
2023-03-22T08:20:13.673Z,15.80
2023-03-22T08:22:42.525Z,15.80
2023-03-22T08:25:11.674Z,15.80
2023-03-22T08:27:41.257Z,15.80
2023-03-22T08:30:11.078Z,15.80
2023-03-22T08:32:39.958Z,15.80
2023-03-22T08:35:09.735Z,15.90
2023-03-22T08:37:38.200Z,15.90
2023-03-22T08:40:10.540Z,16.00
2023-03-22T08:42:38.740Z,16.00
2023-03-22T08:45:10.507Z,16.00
2023-03-22T08:47:38.838Z,16.00
2023-03-22T08:50:08.203Z,16.20
2023-03-22T08:52:36.672Z,16.20
2023-03-22T08:55:05.841Z,16.30
2023-03-22T08:57:34.107Z,16.40
2023-03-22T09:00:04.775Z,16.50
2023-03-22T09:02:34.582Z,16.50
2023-03-22T09:05:02.927Z,16.60
2023-03-22T09:07:31.422Z,16.80
2023-03-22T09:09:59.759Z,16.90
2023-03-22T09:12:29.907Z,16.90
2023-03-22T09:14:58.352Z,17.10
2023-03-22T09:17:27.324Z,17.30
2023-03-22T09:20:11.080Z,17.50
2023-03-22T09:22:40.478Z,17.50
2023-03-22T09:25:12.225Z,17.80
2023-03-22T09:27:42.162Z,18.00
2023-03-22T09:30:12.254Z,18.10
2023-03-22T09:32:43.294Z,18.20
2023-03-22T09:35:12.924Z,18.30
2023-03-22T09:37:41.666Z,18.30
2023-03-22T09:40:12.808Z,18.30
2023-03-22T09:42:43.791Z,18.30
2023-03-22T09:45:16.369Z,18.20
2023-03-22T09:47:48.153Z,18.10
2023-03-22T09:50:22.300Z,18.20
2023-03-22T09:52:51.812Z,18.10
2023-03-22T09:55:22.672Z,18.30
2023-03-22T09:58:01.150Z,18.40
2023-03-22T10:00:39.172Z,18.50
2023-03-22T10:03:21.171Z,18.80
2023-03-22T10:05:56.231Z,19.00
2023-03-22T10:08:35.458Z,19.20
2023-03-22T10:11:05.834Z,19.40
2023-03-22T10:13:41.413Z,19.50
2023-03-22T10:16:17.352Z,19.60
2023-03-22T10:18:48.051Z,19.70
2023-03-22T10:21:20.371Z,19.80
2023-03-22T10:23:53.410Z,19.90
2023-03-22T10:26:26.246Z,19.90
2023-03-22T10:29:03.513Z,20.10
2023-03-22T10:31:35.814Z,20.20
2023-03-22T10:34:10.180Z,20.20
2023-03-22T10:36:42.179Z,20.30
2023-03-22T10:39:20.199Z,20.30
2023-03-22T10:41:50.669Z,20.40
2023-03-22T10:44:21.728Z,20.50
2023-03-22T10:46:50.896Z,20.60
2023-03-22T10:49:26.565Z,20.50
2023-03-22T10:52:01.373Z,20.50
2023-03-22T10:54:29.804Z,20.60
2023-03-22T10:56:58.050Z,20.80
2023-03-22T10:59:48.264Z,20.70
2023-03-22T11:02:22.900Z,20.90
2023-03-22T11:04:54.077Z,20.90
2023-03-22T11:07:35.998Z,21.00
2023-03-22T11:10:22.000Z,21.00
2023-03-22T11:12:53.551Z,21.20
2023-03-22T11:15:26.886Z,21.30
2023-03-22T11:18:01.604Z,21.40
2023-03-22T11:20:31.301Z,21.40
2023-03-22T11:23:05.286Z,21.40
2023-03-22T11:25:37.799Z,21.40
2023-03-22T11:28:16.862Z,21.30
2023-03-22T11:31:00.943Z,21.30
2023-03-22T11:33:29.736Z,21.40
2023-03-22T11:35:59.956Z,21.60
2023-03-22T11:38:36.595Z,21.60
2023-03-22T11:41:09.012Z,21.60
2023-03-22T11:43:40.215Z,21.50
2023-03-22T11:46:09.955Z,21.50
2023-03-22T11:48:41.077Z,21.60
2023-03-22T11:51:12.052Z,21.70
2023-03-22T11:53:44.460Z,21.60
2023-03-22T11:56:16.536Z,21.60
2023-03-22T11:59:04.146Z,21.60
2023-03-22T12:01:38.297Z,21.60
2023-03-22T12:04:10.566Z,21.50
2023-03-22T12:06:41.715Z,21.50
2023-03-22T12:09:23.713Z,21.50
2023-03-22T12:11:56.233Z,21.30
2023-03-22T12:14:29.102Z,21.30
2023-03-22T12:17:01.100Z,21.20
2023-03-22T12:19:44.402Z,21.10
2023-03-22T12:22:15.143Z,21.10
2023-03-22T12:24:44.883Z,21.20
2023-03-22T12:27:18.858Z,21.30
2023-03-22T12:29:53.093Z,21.20
2023-03-22T12:32:26.463Z,21.20
2023-03-22T12:35:05.454Z,21.10
2023-03-22T12:37:47.237Z,21.00
2023-03-22T12:40:24.371Z,20.90
2023-03-22T12:43:01.895Z,20.90
2023-03-22T12:45:33.168Z,20.70
2023-03-22T12:48:08.031Z,20.70
2023-03-22T12:50:43.301Z,20.50
2023-03-22T12:53:15.426Z,20.60
2023-03-22T12:56:04.822Z,20.60
2023-03-22T12:58:33.176Z,20.60
2023-03-22T13:01:13.733Z,20.70
2023-03-22T13:03:52.134Z,20.70
2023-03-22T13:06:33.736Z,20.70
2023-03-22T13:09:17.431Z,20.60
2023-03-22T13:11:48.732Z,20.50
2023-03-22T13:14:50.674Z,20.50
2023-03-22T13:17:41.719Z,20.50
2023-03-22T13:20:34.046Z,20.40
2023-03-22T13:23:26.974Z,20.30
2023-03-22T13:26:06.157Z,20.20
2023-03-22T13:28:38.091Z,20.20
2023-03-22T13:31:07.300Z,20.20
2023-03-22T13:33:38.689Z,20.10
2023-03-22T13:36:23.010Z,20.20
2023-03-22T13:38:58.905Z,20.20
2023-03-22T13:41:32.134Z,20.20
2023-03-22T13:44:05.961Z,20.20
2023-03-22T13:46:47.593Z,20.20
2023-03-22T13:49:27.958Z,20.40
2023-03-22T13:51:59.685Z,20.50
2023-03-22T13:54:33.598Z,20.50
2023-03-22T13:57:02.208Z,20.60
2023-03-22T14:00:08.851Z,20.60
2023-03-22T14:02:42.924Z,20.70
2023-03-22T14:05:17.573Z,21.00
2023-03-22T14:07:50.827Z,21.10
2023-03-22T14:10:23.112Z,21.20
2023-03-22T14:12:55.734Z,21.30
2023-03-22T14:15:30.920Z,21.30
2023-03-22T14:18:03.417Z,21.30
2023-03-22T14:20:39.302Z,21.20
